Flugplatz Münster Osnabrück

Bericht für EDDG

vom 07.12. um 17:20 UTC

Wind 8 kt aus 130°

Sichtweite 10 km oder mehr

gute Sicht, keine Wolken < 5000 ft, keine CB, keine Wettererscheinungen (CAVOK)

Temperatur 3.0°C

Taupunkt 0.0°C

Luftfeuchtigkeit 81%

Luftdruck 1005 hPa

keine wesentliche Wetteränderung innerhalb den nächsten 2 Stunden zu erwarten

EDDG 071720Z 13008KT 090V180 CAVOK 03/00 Q1005 NOSIG

Prognose für EDDG

vom 07.12. um 17:00 UTC

Zwischen 18:00 UTC und 13:00 UTC

Wind 10 kt aus 150°

Sichtweite 10 km oder mehr

keine signifikanten Wettererscheinungen

keine Wolken


Zwischen 22:00 UTC und 05:00 UTC zeitweise

Wind 15 kt aus 150° in Böen 25 kt

Regen

aufgebrochene Bewölkung in 1200 ft


Am 08.12. zwischen 01:00 UTC und 05:00 UTC zeitweise mit einer Wahrscheinlichkeit von 30%

Sichtweite 3000 m

Schnee

Regen

aufgebrochene Bewölkung in 700 ft


Am 08.12. zwischen 13:00 und 16:00 UTC übergehend zu

Wind 4 kt aus 180°

Sichtweite 10 km oder mehr

keine signifikanten Wettererscheinungen

keine Wolken

TAF EDDG 071700Z 0718/0818 15010KT CAVOK TEMPO 0722/0805 15015G25KT RA BKN012 PROB30 TEMPO 0801/0805 3000 SNRA BKN007 BECMG 0813/0816 18004KT
Impressum